sensor_id;sensor_type;location;lat;lon;timestamp;P1;durP1;ratioP1;P2;durP2;ratioP2
75191;SDS011;63771;52.580;9.734;2022-12-05T00:01:35;34.17;;;17.03;;
75191;SDS011;63771;52.580;9.734;2022-12-05T00:04:07;33.92;;;17.95;;
75191;SDS011;63771;52.580;9.734;2022-12-05T00:06:35;37.45;;;19.92;;
75191;SDS011;63771;52.580;9.734;2022-12-05T00:09:01;39.00;;;18.45;;
75191;SDS011;63771;52.580;9.734;2022-12-05T00:11:28;41.90;;;18.55;;
75191;SDS011;63771;52.580;9.734;2022-12-05T00:13:56;45.17;;;20.10;;
75191;SDS011;63771;52.580;9.734;2022-12-05T00:16:23;36.42;;;18.95;;
75191;SDS011;63771;52.580;9.734;2022-12-05T00:18:49;40.95;;;19.52;;
75191;SDS011;63771;52.580;9.734;2022-12-05T00:21:20;40.78;;;19.00;;
75191;SDS011;63771;52.580;9.734;2022-12-05T00:23:50;42.20;;;20.55;;
75191;SDS011;63771;52.580;9.734;2022-12-05T00:26:16;36.33;;;17.60;;
75191;SDS011;63771;52.580;9.734;2022-12-05T00:28:42;44.72;;;21.30;;
75191;SDS011;63771;52.580;9.734;2022-12-05T00:31:10;40.65;;;18.17;;
75191;SDS011;63771;52.580;9.734;2022-12-05T00:33:37;39.00;;;18.45;;
75191;SDS011;63771;52.580;9.734;2022-12-05T00:36:04;37.85;;;17.50;;
75191;SDS011;63771;52.580;9.734;2022-12-05T00:38:34;39.95;;;19.90;;
75191;SDS011;63771;52.580;9.734;2022-12-05T00:41:04;38.17;;;18.50;;
75191;SDS011;63771;52.580;9.734;2022-12-05T00:43:30;34.83;;;19.33;;
75191;SDS011;63771;52.580;9.734;2022-12-05T00:45:59;35.85;;;16.58;;
75191;SDS011;63771;52.580;9.734;2022-12-05T00:48:26;38.00;;;20.55;;
75191;SDS011;63771;52.580;9.734;2022-12-05T00:50:58;32.35;;;18.33;;
75191;SDS011;63771;52.580;9.734;2022-12-05T00:53:32;41.85;;;18.30;;
75191;SDS011;63771;52.580;9.734;2022-12-05T00:56:02;41.22;;;18.20;;
75191;SDS011;63771;52.580;9.734;2022-12-05T00:58:36;40.00;;;18.83;;
75191;SDS011;63771;52.580;9.734;2022-12-05T01:01:09;33.10;;;16.85;;
75191;SDS011;63771;52.580;9.734;2022-12-05T01:03:37;39.53;;;17.88;;
75191;SDS011;63771;52.580;9.734;2022-12-05T01:06:03;37.35;;;18.25;;
75191;SDS011;63771;52.580;9.734;2022-12-05T01:08:30;38.60;;;17.80;;
75191;SDS011;63771;52.580;9.734;2022-12-05T01:10:56;38.85;;;17.30;;
75191;SDS011;63771;52.580;9.734;2022-12-05T01:13:22;34.08;;;16.33;;
75191;SDS011;63771;52.580;9.734;2022-12-05T01:15:48;37.05;;;17.15;;
75191;SDS011;63771;52.580;9.734;2022-12-05T01:18:14;42.63;;;18.00;;
75191;SDS011;63771;52.580;9.734;2022-12-05T01:20:40;36.60;;;17.55;;
75191;SDS011;63771;52.580;9.734;2022-12-05T01:23:06;37.88;;;19.05;;
75191;SDS011;63771;52.580;9.734;2022-12-05T01:25:32;34.58;;;15.98;;
75191;SDS011;63771;52.580;9.734;2022-12-05T01:27:58;38.42;;;18.73;;
75191;SDS011;63771;52.580;9.734;2022-12-05T01:30:23;29.95;;;15.82;;
75191;SDS011;63771;52.580;9.734;2022-12-05T01:32:49;36.35;;;18.00;;
75191;SDS011;63771;52.580;9.734;2022-12-05T01:35:14;34.67;;;17.67;;
75191;SDS011;63771;52.580;9.734;2022-12-05T01:37:39;33.17;;;14.05;;
75191;SDS011;63771;52.580;9.734;2022-12-05T01:40:05;37.13;;;17.77;;
75191;SDS011;63771;52.580;9.734;2022-12-05T01:42:32;37.17;;;17.83;;
75191;SDS011;63771;52.580;9.734;2022-12-05T01:44:59;34.85;;;17.05;;
75191;SDS011;63771;52.580;9.734;2022-12-05T01:47:26;37.15;;;18.05;;
75191;SDS011;63771;52.580;9.734;2022-12-05T01:49:54;33.67;;;16.23;;
75191;SDS011;63771;52.580;9.734;2022-12-05T01:52:22;33.50;;;17.15;;
75191;SDS011;63771;52.580;9.734;2022-12-05T01:54:51;29.73;;;15.32;;
75191;SDS011;63771;52.580;9.734;2022-12-05T01:57:20;31.67;;;16.65;;
75191;SDS011;63771;52.580;9.734;2022-12-05T01:59:49;36.90;;;18.23;;
75191;SDS011;63771;52.580;9.734;2022-12-05T02:02:19;36.50;;;16.75;;
75191;SDS011;63771;52.580;9.734;2022-12-05T02:04:47;35.70;;;19.70;;
75191;SDS011;63771;52.580;9.734;2022-12-05T02:07:22;35.17;;;17.38;;
75191;SDS011;63771;52.580;9.734;2022-12-05T02:09:48;32.20;;;17.23;;
75191;SDS011;63771;52.580;9.734;2022-12-05T02:12:15;35.05;;;15.80;;
75191;SDS011;63771;52.580;9.734;2022-12-05T02:15:07;38.17;;;17.13;;
75191;SDS011;63771;52.580;9.734;2022-12-05T02:17:49;35.47;;;15.88;;
75191;SDS011;63771;52.580;9.734;2022-12-05T02:23:13;33.97;;;15.10;;
75191;SDS011;63771;52.580;9.734;2022-12-05T02:35:06;27.95;;;14.98;;
75191;SDS011;63771;52.580;9.734;2022-12-05T02:43:45;33.95;;;14.23;;
75191;SDS011;63771;52.580;9.734;2022-12-05T02:46:18;28.05;;;14.55;;
75191;SDS011;63771;52.580;9.734;2022-12-05T02:48:46;35.65;;;15.95;;
75191;SDS011;63771;52.580;9.734;2022-12-05T02:51:16;32.17;;;14.93;;
75191;SDS011;63771;52.580;9.734;2022-12-05T02:53:43;31.73;;;15.55;;
75191;SDS011;63771;52.580;9.734;2022-12-05T02:56:10;34.60;;;17.83;;
75191;SDS011;63771;52.580;9.734;2022-12-05T02:58:39;30.98;;;16.25;;
75191;SDS011;63771;52.580;9.734;2022-12-05T03:01:11;34.63;;;15.57;;
75191;SDS011;63771;52.580;9.734;2022-12-05T03:03:36;32.65;;;15.95;;
75191;SDS011;63771;52.580;9.734;2022-12-05T03:06:03;32.30;;;15.75;;
75191;SDS011;63771;52.580;9.734;2022-12-05T03:08:36;28.90;;;14.98;;
75191;SDS011;63771;52.580;9.734;2022-12-05T03:13:38;24.33;;;13.43;;
75191;SDS011;63771;52.580;9.734;2022-12-05T03:16:12;28.63;;;15.65;;
75191;SDS011;63771;52.580;9.734;2022-12-05T03:18:46;31.73;;;15.63;;
75191;SDS011;63771;52.580;9.734;2022-12-05T03:24:08;29.30;;;15.00;;
75191;SDS011;63771;52.580;9.734;2022-12-05T03:29:23;27.30;;;14.95;;
75191;SDS011;63771;52.580;9.734;2022-12-05T03:34:41;31.58;;;15.85;;
75191;SDS011;63771;52.580;9.734;2022-12-05T03:37:10;32.22;;;15.00;;
75191;SDS011;63771;52.580;9.734;2022-12-05T03:39:40;28.42;;;15.70;;
75191;SDS011;63771;52.580;9.734;2022-12-05T03:42:12;31.02;;;15.63;;
75191;SDS011;63771;52.580;9.734;2022-12-05T03:47:17;33.83;;;14.52;;
75191;SDS011;63771;52.580;9.734;2022-12-05T03:49:49;25.63;;;13.55;;
75191;SDS011;63771;52.580;9.734;2022-12-05T03:52:21;27.13;;;13.13;;
75191;SDS011;63771;52.580;9.734;2022-12-05T03:54:58;28.55;;;14.32;;
75191;SDS011;63771;52.580;9.734;2022-12-05T04:00:10;25.45;;;13.45;;
75191;SDS011;63771;52.580;9.734;2022-12-05T04:05:34;26.33;;;13.20;;
75191;SDS011;63771;52.580;9.734;2022-12-05T04:08:09;21.92;;;12.82;;
75191;SDS011;63771;52.580;9.734;2022-12-05T04:10:48;25.65;;;13.70;;
75191;SDS011;63771;52.580;9.734;2022-12-05T04:15:58;30.30;;;14.02;;
75191;SDS011;63771;52.580;9.734;2022-12-05T04:18:52;30.23;;;13.55;;
75191;SDS011;63771;52.580;9.734;2022-12-05T04:21:23;28.67;;;14.25;;
75191;SDS011;63771;52.580;9.734;2022-12-05T04:24:05;28.83;;;14.05;;
75191;SDS011;63771;52.580;9.734;2022-12-05T04:26:53;29.27;;;14.07;;
75191;SDS011;63771;52.580;9.734;2022-12-05T04:29:28;24.42;;;12.68;;
75191;SDS011;63771;52.580;9.734;2022-12-05T04:32:00;28.58;;;14.63;;
75191;SDS011;63771;52.580;9.734;2022-12-05T04:34:30;24.05;;;13.73;;
75191;SDS011;63771;52.580;9.734;2022-12-05T04:36:59;30.15;;;15.02;;
75191;SDS011;63771;52.580;9.734;2022-12-05T04:39:30;22.17;;;11.07;;
75191;SDS011;63771;52.580;9.734;2022-12-05T04:42:19;26.83;;;13.45;;
75191;SDS011;63771;52.580;9.734;2022-12-05T04:44:51;28.00;;;13.00;;
75191;SDS011;63771;52.580;9.734;2022-12-05T04:47:21;27.85;;;12.85;;
75191;SDS011;63771;52.580;9.734;2022-12-05T04:49:51;24.13;;;12.57;;
75191;SDS011;63771;52.580;9.734;2022-12-05T04:52:18;27.63;;;14.10;;
75191;SDS011;63771;52.580;9.734;2022-12-05T04:54:47;24.23;;;13.38;;
75191;SDS011;63771;52.580;9.734;2022-12-05T04:57:21;26.60;;;13.23;;
75191;SDS011;63771;52.580;9.734;2022-12-05T04:59:48;28.30;;;13.77;;
75191;SDS011;63771;52.580;9.734;2022-12-05T05:02:16;24.70;;;12.88;;
75191;SDS011;63771;52.580;9.734;2022-12-05T05:04:46;24.52;;;15.55;;
75191;SDS011;63771;52.580;9.734;2022-12-05T05:07:15;26.20;;;12.90;;
75191;SDS011;63771;52.580;9.734;2022-12-05T05:09:41;20.88;;;12.65;;
75191;SDS011;63771;52.580;9.734;2022-12-05T05:12:08;28.98;;;13.00;;
75191;SDS011;63771;52.580;9.734;2022-12-05T05:14:34;25.35;;;13.65;;
75191;SDS011;63771;52.580;9.734;2022-12-05T05:17:00;22.90;;;13.90;;
75191;SDS011;63771;52.580;9.734;2022-12-05T05:19:25;22.30;;;12.98;;
75191;SDS011;63771;52.580;9.734;2022-12-05T05:21:50;25.05;;;13.80;;
75191;SDS011;63771;52.580;9.734;2022-12-05T05:24:16;24.83;;;12.75;;
75191;SDS011;63771;52.580;9.734;2022-12-05T05:26:43;24.17;;;12.90;;
75191;SDS011;63771;52.580;9.734;2022-12-05T05:29:10;19.20;;;12.52;;
75191;SDS011;63771;52.580;9.734;2022-12-05T05:31:36;21.80;;;13.20;;
75191;SDS011;63771;52.580;9.734;2022-12-05T05:34:03;26.58;;;13.65;;
75191;SDS011;63771;52.580;9.734;2022-12-05T05:36:29;25.60;;;11.55;;
75191;SDS011;63771;52.580;9.734;2022-12-05T05:38:56;26.13;;;13.32;;
75191;SDS011;63771;52.580;9.734;2022-12-05T05:41:34;21.23;;;13.43;;
75191;SDS011;63771;52.580;9.734;2022-12-05T05:44:00;23.08;;;13.13;;
75191;SDS011;63771;52.580;9.734;2022-12-05T05:46:27;24.65;;;12.93;;
75191;SDS011;63771;52.580;9.734;2022-12-05T05:48:55;22.85;;;13.07;;
75191;SDS011;63771;52.580;9.734;2022-12-05T05:51:21;23.60;;;11.80;;
75191;SDS011;63771;52.580;9.734;2022-12-05T05:53:49;22.48;;;12.43;;
75191;SDS011;63771;52.580;9.734;2022-12-05T05:56:15;22.85;;;12.52;;
75191;SDS011;63771;52.580;9.734;2022-12-05T05:58:43;21.58;;;12.68;;
75191;SDS011;63771;52.580;9.734;2022-12-05T06:01:09;20.67;;;12.70;;
75191;SDS011;63771;52.580;9.734;2022-12-05T06:03:37;26.08;;;13.70;;
75191;SDS011;63771;52.580;9.734;2022-12-05T06:06:04;20.80;;;12.07;;
75191;SDS011;63771;52.580;9.734;2022-12-05T06:10:57;22.83;;;10.73;;
75191;SDS011;63771;52.580;9.734;2022-12-05T06:13:23;22.23;;;11.73;;
75191;SDS011;63771;52.580;9.734;2022-12-05T06:15:48;16.80;;;10.50;;
75191;SDS011;63771;52.580;9.734;2022-12-05T06:18:14;16.63;;;10.50;;
75191;SDS011;63771;52.580;9.734;2022-12-05T06:20:39;18.17;;;11.30;;
75191;SDS011;63771;52.580;9.734;2022-12-05T06:23:04;18.65;;;10.98;;
75191;SDS011;63771;52.580;9.734;2022-12-05T06:25:30;17.00;;;11.20;;
75191;SDS011;63771;52.580;9.734;2022-12-05T06:27:55;21.63;;;12.13;;
75191;SDS011;63771;52.580;9.734;2022-12-05T06:30:20;19.73;;;11.17;;
75191;SDS011;63771;52.580;9.734;2022-12-05T06:32:46;20.57;;;12.07;;
75191;SDS011;63771;52.580;9.734;2022-12-05T06:35:11;17.55;;;9.90;;
75191;SDS011;63771;52.580;9.734;2022-12-05T06:37:42;21.52;;;12.23;;
75191;SDS011;63771;52.580;9.734;2022-12-05T06:40:09;17.40;;;9.75;;
75191;SDS011;63771;52.580;9.734;2022-12-05T06:42:38;15.38;;;9.40;;
75191;SDS011;63771;52.580;9.734;2022-12-05T06:45:03;17.83;;;10.02;;
75191;SDS011;63771;52.580;9.734;2022-12-05T06:47:30;16.60;;;10.52;;
75191;SDS011;63771;52.580;9.734;2022-12-05T06:49:55;15.82;;;10.30;;
75191;SDS011;63771;52.580;9.734;2022-12-05T06:52:20;15.10;;;9.03;;
75191;SDS011;63771;52.580;9.734;2022-12-05T06:54:46;17.97;;;10.50;;
75191;SDS011;63771;52.580;9.734;2022-12-05T06:57:11;16.53;;;10.00;;
75191;SDS011;63771;52.580;9.734;2022-12-05T06:59:37;16.33;;;10.23;;
75191;SDS011;63771;52.580;9.734;2022-12-05T07:02:03;12.57;;;8.20;;
75191;SDS011;63771;52.580;9.734;2022-12-05T07:04:32;18.58;;;9.85;;
75191;SDS011;63771;52.580;9.734;2022-12-05T07:06:58;14.55;;;9.93;;
75191;SDS011;63771;52.580;9.734;2022-12-05T07:09:24;15.32;;;10.20;;
75191;SDS011;63771;52.580;9.734;2022-12-05T07:12:08;15.10;;;9.85;;
75191;SDS011;63771;52.580;9.734;2022-12-05T07:14:34;16.35;;;10.95;;
75191;SDS011;63771;52.580;9.734;2022-12-05T07:16:59;15.37;;;9.33;;
75191;SDS011;63771;52.580;9.734;2022-12-05T07:19:24;17.97;;;9.90;;
75191;SDS011;63771;52.580;9.734;2022-12-05T07:21:50;16.37;;;9.33;;
75191;SDS011;63771;52.580;9.734;2022-12-05T07:24:15;15.10;;;9.87;;
75191;SDS011;63771;52.580;9.734;2022-12-05T07:26:40;17.53;;;9.03;;
75191;SDS011;63771;52.580;9.734;2022-12-05T07:29:06;16.30;;;10.85;;
75191;SDS011;63771;52.580;9.734;2022-12-05T07:31:31;15.33;;;9.93;;
75191;SDS011;63771;52.580;9.734;2022-12-05T07:33:57;15.65;;;10.63;;
75191;SDS011;63771;52.580;9.734;2022-12-05T07:36:23;15.27;;;10.07;;
75191;SDS011;63771;52.580;9.734;2022-12-05T07:38:53;17.88;;;11.27;;
75191;SDS011;63771;52.580;9.734;2022-12-05T07:41:23;17.70;;;10.77;;
75191;SDS011;63771;52.580;9.734;2022-12-05T07:43:50;17.13;;;10.93;;
75191;SDS011;63771;52.580;9.734;2022-12-05T07:46:17;20.33;;;10.52;;
75191;SDS011;63771;52.580;9.734;2022-12-05T07:48:43;17.55;;;10.65;;
75191;SDS011;63771;52.580;9.734;2022-12-05T07:51:08;16.98;;;10.43;;
75191;SDS011;63771;52.580;9.734;2022-12-05T07:53:34;16.42;;;8.50;;
75191;SDS011;63771;52.580;9.734;2022-12-05T07:56:02;18.63;;;10.38;;
75191;SDS011;63771;52.580;9.734;2022-12-05T07:58:28;16.75;;;11.20;;
75191;SDS011;63771;52.580;9.734;2022-12-05T08:00:54;18.05;;;10.27;;
75191;SDS011;63771;52.580;9.734;2022-12-05T08:03:20;17.85;;;10.38;;
75191;SDS011;63771;52.580;9.734;2022-12-05T08:05:45;22.42;;;10.10;;
75191;SDS011;63771;52.580;9.734;2022-12-05T08:08:11;14.48;;;9.65;;
75191;SDS011;63771;52.580;9.734;2022-12-05T08:10:36;14.77;;;9.50;;
75191;SDS011;63771;52.580;9.734;2022-12-05T08:13:01;16.50;;;10.23;;
75191;SDS011;63771;52.580;9.734;2022-12-05T08:15:27;17.27;;;10.10;;
75191;SDS011;63771;52.580;9.734;2022-12-05T08:17:52;16.92;;;9.63;;
75191;SDS011;63771;52.580;9.734;2022-12-05T08:20:17;18.57;;;10.50;;
75191;SDS011;63771;52.580;9.734;2022-12-05T08:22:43;17.77;;;9.57;;
75191;SDS011;63771;52.580;9.734;2022-12-05T08:25:08;16.45;;;10.77;;
75191;SDS011;63771;52.580;9.734;2022-12-05T08:27:34;20.02;;;14.15;;
75191;SDS011;63771;52.580;9.734;2022-12-05T08:29:59;18.73;;;11.23;;
75191;SDS011;63771;52.580;9.734;2022-12-05T08:32:25;18.20;;;10.13;;
75191;SDS011;63771;52.580;9.734;2022-12-05T08:34:51;19.67;;;10.35;;
75191;SDS011;63771;52.580;9.734;2022-12-05T08:37:16;13.95;;;10.80;;
75191;SDS011;63771;52.580;9.734;2022-12-05T08:39:42;15.83;;;10.40;;
75191;SDS011;63771;52.580;9.734;2022-12-05T08:42:07;14.60;;;9.33;;
75191;SDS011;63771;52.580;9.734;2022-12-05T08:44:32;17.53;;;9.30;;
75191;SDS011;63771;52.580;9.734;2022-12-05T08:46:58;14.45;;;8.65;;
75191;SDS011;63771;52.580;9.734;2022-12-05T08:49:23;19.50;;;10.97;;
75191;SDS011;63771;52.580;9.734;2022-12-05T08:51:48;14.15;;;10.13;;
75191;SDS011;63771;52.580;9.734;2022-12-05T08:54:14;13.57;;;9.90;;
75191;SDS011;63771;52.580;9.734;2022-12-05T08:56:39;17.02;;;10.57;;
75191;SDS011;63771;52.580;9.734;2022-12-05T08:59:05;15.80;;;10.30;;
75191;SDS011;63771;52.580;9.734;2022-12-05T09:01:30;19.27;;;10.25;;
75191;SDS011;63771;52.580;9.734;2022-12-05T09:03:57;12.77;;;9.20;;
75191;SDS011;63771;52.580;9.734;2022-12-05T09:06:28;17.42;;;10.85;;
75191;SDS011;63771;52.580;9.734;2022-12-05T09:08:55;15.18;;;9.80;;
75191;SDS011;63771;52.580;9.734;2022-12-05T09:11:26;17.55;;;9.48;;
75191;SDS011;63771;52.580;9.734;2022-12-05T09:13:55;14.90;;;9.95;;
75191;SDS011;63771;52.580;9.734;2022-12-05T09:16:31;14.43;;;8.88;;
75191;SDS011;63771;52.580;9.734;2022-12-05T09:18:58;14.38;;;9.68;;
75191;SDS011;63771;52.580;9.734;2022-12-05T09:21:25;15.38;;;10.05;;
75191;SDS011;63771;52.580;9.734;2022-12-05T09:23:52;15.45;;;10.52;;
75191;SDS011;63771;52.580;9.734;2022-12-05T09:26:19;16.17;;;10.25;;
75191;SDS011;63771;52.580;9.734;2022-12-05T09:28:47;17.27;;;9.40;;
75191;SDS011;63771;52.580;9.734;2022-12-05T09:31:20;15.63;;;10.57;;
75191;SDS011;63771;52.580;9.734;2022-12-05T09:33:48;15.68;;;9.43;;
75191;SDS011;63771;52.580;9.734;2022-12-05T09:36:35;17.42;;;9.60;;
75191;SDS011;63771;52.580;9.734;2022-12-05T09:39:01;15.68;;;8.75;;
75191;SDS011;63771;52.580;9.734;2022-12-05T09:55:35;14.40;;;8.07;;
75191;SDS011;63771;52.580;9.734;2022-12-05T09:58:01;12.73;;;8.15;;
75191;SDS011;63771;52.580;9.734;2022-12-05T10:00:29;13.00;;;9.60;;
75191;SDS011;63771;52.580;9.734;2022-12-05T10:02:58;12.07;;;8.70;;
75191;SDS011;63771;52.580;9.734;2022-12-05T10:05:39;13.88;;;9.27;;
75191;SDS011;63771;52.580;9.734;2022-12-05T10:10:59;12.55;;;8.25;;
75191;SDS011;63771;52.580;9.734;2022-12-05T10:13:55;12.00;;;8.45;;
75191;SDS011;63771;52.580;9.734;2022-12-05T10:16:56;14.60;;;8.27;;
75191;SDS011;63771;52.580;9.734;2022-12-05T10:19:31;16.60;;;9.98;;
75191;SDS011;63771;52.580;9.734;2022-12-05T10:22:12;15.48;;;10.05;;
75191;SDS011;63771;52.580;9.734;2022-12-05T10:24:45;12.77;;;8.05;;
75191;SDS011;63771;52.580;9.734;2022-12-05T10:27:20;11.15;;;8.00;;
75191;SDS011;63771;52.580;9.734;2022-12-05T10:35:23;9.73;;;7.38;;
75191;SDS011;63771;52.580;9.734;2022-12-05T10:37:52;12.68;;;8.13;;
75191;SDS011;63771;52.580;9.734;2022-12-05T10:40:28;10.60;;;7.80;;
75191;SDS011;63771;52.580;9.734;2022-12-05T10:43:09;11.65;;;7.10;;
75191;SDS011;63771;52.580;9.734;2022-12-05T10:45:40;10.27;;;7.95;;
75191;SDS011;63771;52.580;9.734;2022-12-05T10:48:10;10.68;;;7.90;;
75191;SDS011;63771;52.580;9.734;2022-12-05T10:50:38;11.70;;;6.93;;
75191;SDS011;63771;52.580;9.734;2022-12-05T10:53:04;12.68;;;8.15;;
75191;SDS011;63771;52.580;9.734;2022-12-05T10:55:35;12.98;;;8.10;;
75191;SDS011;63771;52.580;9.734;2022-12-05T10:58:08;11.50;;;7.55;;
75191;SDS011;63771;52.580;9.734;2022-12-05T11:00:38;11.43;;;6.93;;
75191;SDS011;63771;52.580;9.734;2022-12-05T11:05:58;14.23;;;8.30;;
75191;SDS011;63771;52.580;9.734;2022-12-05T11:08:41;10.45;;;7.68;;
75191;SDS011;63771;52.580;9.734;2022-12-05T11:11:19;10.15;;;7.28;;
75191;SDS011;63771;52.580;9.734;2022-12-05T11:14:06;12.68;;;8.15;;
75191;SDS011;63771;52.580;9.734;2022-12-05T11:16:52;10.50;;;7.18;;
75191;SDS011;63771;52.580;9.734;2022-12-05T11:21:47;12.27;;;7.77;;
75191;SDS011;63771;52.580;9.734;2022-12-05T11:24:20;10.77;;;7.85;;
75191;SDS011;63771;52.580;9.734;2022-12-05T11:26:54;10.88;;;7.13;;
75191;SDS011;63771;52.580;9.734;2022-12-05T11:31:54;12.57;;;7.72;;
75191;SDS011;63771;52.580;9.734;2022-12-05T11:34:21;10.77;;;8.03;;
75191;SDS011;63771;52.580;9.734;2022-12-05T11:37:02;12.50;;;8.55;;
75191;SDS011;63771;52.580;9.734;2022-12-05T11:39:34;14.02;;;7.43;;
75191;SDS011;63771;52.580;9.734;2022-12-05T11:42:10;10.75;;;6.68;;
75191;SDS011;63771;52.580;9.734;2022-12-05T11:48:07;10.80;;;6.60;;
75191;SDS011;63771;52.580;9.734;2022-12-05T11:50:27;12.77;;;6.28;;
75191;SDS011;63771;52.580;9.734;2022-12-05T11:56:19;12.45;;;7.22;;
75191;SDS011;63771;52.580;9.734;2022-12-05T12:04:18;9.25;;;6.30;;
75191;SDS011;63771;52.580;9.734;2022-12-05T12:06:54;10.35;;;7.07;;
75191;SDS011;63771;52.580;9.734;2022-12-05T12:12:29;12.90;;;7.97;;
75191;SDS011;63771;52.580;9.734;2022-12-05T12:18:22;9.20;;;6.47;;
75191;SDS011;63771;52.580;9.734;2022-12-05T12:42:57;9.57;;;6.18;;
75191;SDS011;63771;52.580;9.734;2022-12-05T12:51:02;7.45;;;6.43;;
75191;SDS011;63771;52.580;9.734;2022-12-05T12:56:21;7.03;;;5.15;;
75191;SDS011;63771;52.580;9.734;2022-12-05T13:01:41;6.28;;;5.22;;
75191;SDS011;63771;52.580;9.734;2022-12-05T13:04:19;6.72;;;5.97;;
75191;SDS011;63771;52.580;9.734;2022-12-05T13:06:59;7.07;;;5.72;;
75191;SDS011;63771;52.580;9.734;2022-12-05T13:12:06;8.02;;;5.93;;
75191;SDS011;63771;52.580;9.734;2022-12-05T13:14:35;7.18;;;5.10;;
75191;SDS011;63771;52.580;9.734;2022-12-05T13:17:03;6.20;;;5.00;;
75191;SDS011;63771;52.580;9.734;2022-12-05T13:19:41;8.38;;;5.05;;
75191;SDS011;63771;52.580;9.734;2022-12-05T13:22:11;6.50;;;5.22;;
75191;SDS011;63771;52.580;9.734;2022-12-05T13:24:37;6.13;;;4.82;;
75191;SDS011;63771;52.580;9.734;2022-12-05T13:27:08;7.82;;;5.43;;
75191;SDS011;63771;52.580;9.734;2022-12-05T13:29:40;8.55;;;5.82;;
75191;SDS011;63771;52.580;9.734;2022-12-05T13:32:34;5.82;;;5.28;;
75191;SDS011;63771;52.580;9.734;2022-12-05T13:37:31;8.25;;;5.82;;
75191;SDS011;63771;52.580;9.734;2022-12-05T13:43:16;6.90;;;6.13;;
75191;SDS011;63771;52.580;9.734;2022-12-05T13:46:17;7.20;;;5.93;;
75191;SDS011;63771;52.580;9.734;2022-12-05T13:48:43;5.78;;;5.22;;
75191;SDS011;63771;52.580;9.734;2022-12-05T13:51:12;7.78;;;6.35;;
75191;SDS011;63771;52.580;9.734;2022-12-05T13:53:57;6.63;;;5.97;;
75191;SDS011;63771;52.580;9.734;2022-12-05T13:56:44;7.60;;;4.47;;
75191;SDS011;63771;52.580;9.734;2022-12-05T13:59:12;5.30;;;4.63;;
75191;SDS011;63771;52.580;9.734;2022-12-05T14:01:57;7.97;;;5.75;;
75191;SDS011;63771;52.580;9.734;2022-12-05T14:07:37;19.17;;;11.95;;
75191;SDS011;63771;52.580;9.734;2022-12-05T14:10:12;26.08;;;15.90;;
75191;SDS011;63771;52.580;9.734;2022-12-05T14:12:45;16.98;;;11.68;;
75191;SDS011;63771;52.580;9.734;2022-12-05T14:32:18;6.72;;;5.25;;
75191;SDS011;63771;52.580;9.734;2022-12-05T14:34:51;8.95;;;6.55;;
75191;SDS011;63771;52.580;9.734;2022-12-05T14:37:25;6.13;;;4.90;;
75191;SDS011;63771;52.580;9.734;2022-12-05T14:39:55;9.27;;;7.20;;
75191;SDS011;63771;52.580;9.734;2022-12-05T14:44:51;7.97;;;5.68;;
75191;SDS011;63771;52.580;9.734;2022-12-05T14:47:26;7.85;;;5.35;;
75191;SDS011;63771;52.580;9.734;2022-12-05T14:52:25;8.00;;;6.47;;
75191;SDS011;63771;52.580;9.734;2022-12-05T14:54:53;9.32;;;5.70;;
75191;SDS011;63771;52.580;9.734;2022-12-05T14:57:25;8.73;;;5.75;;
75191;SDS011;63771;52.580;9.734;2022-12-05T14:59:55;7.43;;;5.25;;
75191;SDS011;63771;52.580;9.734;2022-12-05T15:02:36;9.18;;;5.95;;
75191;SDS011;63771;52.580;9.734;2022-12-05T15:05:25;7.72;;;5.95;;
75191;SDS011;63771;52.580;9.734;2022-12-05T15:07:54;8.27;;;5.80;;
75191;SDS011;63771;52.580;9.734;2022-12-05T15:10:31;14.90;;;7.13;;
75191;SDS011;63771;52.580;9.734;2022-12-05T15:13:03;12.85;;;8.07;;
75191;SDS011;63771;52.580;9.734;2022-12-05T15:15:36;13.35;;;7.88;;
75191;SDS011;63771;52.580;9.734;2022-12-05T15:21:09;11.07;;;7.72;;
75191;SDS011;63771;52.580;9.734;2022-12-05T15:23:57;7.15;;;5.63;;
75191;SDS011;63771;52.580;9.734;2022-12-05T15:31:50;12.10;;;7.53;;
75191;SDS011;63771;52.580;9.734;2022-12-05T15:37:20;9.30;;;6.57;;
75191;SDS011;63771;52.580;9.734;2022-12-05T15:39:59;11.65;;;9.30;;
75191;SDS011;63771;52.580;9.734;2022-12-05T15:42:43;7.88;;;6.95;;
75191;SDS011;63771;52.580;9.734;2022-12-05T15:47:43;10.95;;;7.35;;
75191;SDS011;63771;52.580;9.734;2022-12-05T15:55:42;8.55;;;7.35;;
75191;SDS011;63771;52.580;9.734;2022-12-05T15:58:28;9.27;;;7.32;;
75191;SDS011;63771;52.580;9.734;2022-12-05T16:01:02;15.63;;;11.75;;
75191;SDS011;63771;52.580;9.734;2022-12-05T16:06:22;24.08;;;14.40;;
75191;SDS011;63771;52.580;9.734;2022-12-05T16:08:56;14.68;;;10.52;;
75191;SDS011;63771;52.580;9.734;2022-12-05T16:11:23;13.25;;;9.30;;
75191;SDS011;63771;52.580;9.734;2022-12-05T16:13:50;13.63;;;9.50;;
75191;SDS011;63771;52.580;9.734;2022-12-05T16:16:19;10.75;;;8.82;;
75191;SDS011;63771;52.580;9.734;2022-12-05T16:18:48;19.42;;;12.45;;
75191;SDS011;63771;52.580;9.734;2022-12-05T16:24:32;11.32;;;7.90;;
75191;SDS011;63771;52.580;9.734;2022-12-05T16:29:40;9.88;;;6.65;;
75191;SDS011;63771;52.580;9.734;2022-12-05T16:32:13;11.02;;;7.50;;
75191;SDS011;63771;52.580;9.734;2022-12-05T16:34:45;11.02;;;7.50;;
75191;SDS011;63771;52.580;9.734;2022-12-05T16:37:21;10.55;;;6.22;;
75191;SDS011;63771;52.580;9.734;2022-12-05T16:39:49;12.77;;;7.97;;
75191;SDS011;63771;52.580;9.734;2022-12-05T16:42:21;9.02;;;7.13;;
75191;SDS011;63771;52.580;9.734;2022-12-05T16:44:52;11.40;;;8.23;;
75191;SDS011;63771;52.580;9.734;2022-12-05T16:55:31;11.60;;;8.07;;
75191;SDS011;63771;52.580;9.734;2022-12-05T16:58:00;11.15;;;7.55;;
75191;SDS011;63771;52.580;9.734;2022-12-05T17:00:26;10.98;;;7.97;;
75191;SDS011;63771;52.580;9.734;2022-12-05T17:02:52;8.45;;;7.35;;
75191;SDS011;63771;52.580;9.734;2022-12-05T17:05:17;15.20;;;8.23;;
75191;SDS011;63771;52.580;9.734;2022-12-05T17:07:42;9.70;;;7.33;;
75191;SDS011;63771;52.580;9.734;2022-12-05T17:10:08;12.80;;;7.60;;
75191;SDS011;63771;52.580;9.734;2022-12-05T17:12:33;14.40;;;9.40;;
75191;SDS011;63771;52.580;9.734;2022-12-05T17:14:59;11.43;;;8.55;;
75191;SDS011;63771;52.580;9.734;2022-12-05T17:17:25;11.37;;;7.57;;
75191;SDS011;63771;52.580;9.734;2022-12-05T17:19:50;10.00;;;8.18;;
75191;SDS011;63771;52.580;9.734;2022-12-05T17:22:15;11.87;;;7.77;;
75191;SDS011;63771;52.580;9.734;2022-12-05T17:24:41;9.93;;;7.90;;
75191;SDS011;63771;52.580;9.734;2022-12-05T17:27:10;11.65;;;8.93;;
75191;SDS011;63771;52.580;9.734;2022-12-05T17:29:36;13.00;;;8.63;;
75191;SDS011;63771;52.580;9.734;2022-12-05T17:32:02;11.93;;;8.73;;
75191;SDS011;63771;52.580;9.734;2022-12-05T17:34:27;10.93;;;9.60;;
75191;SDS011;63771;52.580;9.734;2022-12-05T17:36:53;19.40;;;11.48;;
75191;SDS011;63771;52.580;9.734;2022-12-05T17:39:18;14.85;;;10.70;;
75191;SDS011;63771;52.580;9.734;2022-12-05T17:41:44;14.00;;;9.20;;
75191;SDS011;63771;52.580;9.734;2022-12-05T17:44:10;13.00;;;9.47;;
75191;SDS011;63771;52.580;9.734;2022-12-05T17:46:38;39.03;;;21.80;;
75191;SDS011;63771;52.580;9.734;2022-12-05T17:49:05;25.42;;;16.52;;
75191;SDS011;63771;52.580;9.734;2022-12-05T17:51:36;19.63;;;10.95;;
75191;SDS011;63771;52.580;9.734;2022-12-05T17:54:01;17.97;;;11.07;;
75191;SDS011;63771;52.580;9.734;2022-12-05T17:56:26;13.83;;;10.33;;
75191;SDS011;63771;52.580;9.734;2022-12-05T17:58:52;17.37;;;9.47;;